Sugar Notch, Pennsylvania
Current Conditions -  °F | °C
As of 4:54 AM on Saturday 20 Dec 2014 (Local Time) from KAVP Reporting Station
Overcast Overcast  
Wind Chill: 24°   Ceiling: 1900
Heat Index: 29°   Visibility: 10mi
Dew Point: 20°   Wind: 5mph
Humidity: 69%   Direction: 350°N
Pressure: 30.2"   Gusts: NA
Location:  41.1921°N, 75.9213°W
Report Text: KAVP 200954Z AUTO 35004KT 10SM OVC019 M02/M07 A3020 RMK AO2 SLP237 T10171067
Loading
Personal Weather Stations






























Interactive Weather Map New forecast layout! Learn more

10-Day Weather Forecast

Advertisements
Track Severe Weather on mobile